Terminal Aerodrome Forecast
Issued by NWS

Home | Current Version | Previous Version | Text Only | Print | Product List | Glossary On
Versions: 1 2 3 4 5 6 7 8 9 10 11 12 13 14 15 16
000
FTUS46 KSEW 260500
TAFPAE
TAF
KPAE 260536Z 2606/2706 19016G26KT P6SM -SHRA SCT020 BKN030 BKN080
      TEMPO 2606/2610 3SM -SHRA BR BKN015 OVC030
     FM261300 19012KT P6SM -SHRA BKN015 OVC030
     FM261800 19012KT P6SM -SHRA SCT020 BKN040=

USA.gov is the U.S. government's official web portal to all federal, state and local government web resources and services.